Etusivu
METAR-TAF:

METAR-TAF

Lentoasemat :

Clermont-Ferrand, Ranska

Leveyspiiri: 45-47N, Pituuspiiri: 003-10E, korkeus merenpinnasta: 332 m

Tämänhetkinen sää

Tämä raportti tehtiin 32 minuuttia sitten, kello 03.00 UTC
Tuuli 3 kn pohjoisesta/koillisesta
Lämpötila 9°C
Kosteus 61%
Ilmanpaine 1022 hPa
Näkyvyys 10 km tai enemmän
ei pilviä alle 1500 m:ssä eikä cumulonimbus-pilviä

METAR: LFLC 100300Z AUTO 02003KT CAVOK 09/02 Q1022 NOSIG

Aika: 05:32 (03:32 UTC)

Sääennuste

Tämä raportti tehtiin 1 tunti ja 32 minuuttia sitten, kello 02.00 UTC
Ennuste voimassa 10. päivästä klo 03 UTC - 11. päivään klo 03 UTC
Tuuli 5 kn eri suunnista
Näkyvyys 10 km tai enemmän
ei pilviä alle 1500 m:ssä eikä cumulonimbus-pilviä
Ajoittain
10. päivästä klo 11 UTC - 10. päivään klo 19 UTC
Tuuli 10 kn pohjoisesta/koillisesta

TAF: LFLC 100200Z 1003/1103 VRB05KT CAVOK TEMPO 1011/1019 03010KT

Säähavainnot ja -ennusteet yli 4000 lentoasemalta (METAR- ja TAF-raportit).

Käytössä olevat sääasemat on merkitty karttaan keltaisilla ja punaisilla pisteillä.

Aseta hiiri pisteen päälle nähdäksesi sääaseman nimen.

Klikkaa sitten nähdäksesi säähavainnot ja -ennusteet.

Kartan vaihtaminen: klikkaa mustalla rastilla varustettuja vihreitä pisteitä, niin voit zoomata sisään; viivalla varustettua vihreää pistettä, niin voit zoomata ulos tai vihreitä nuolia, niin pääset viereisille kartoille.


METAR-TAF: